sensor_id;sensor_type;location;lat;lon;timestamp;temperature;humidity
80706;DHT22;70229;48.010;7.852;2023-08-12T00:00:17;23.60;67.50
80706;DHT22;70229;48.010;7.852;2023-08-12T00:02:43;23.80;67.40
80706;DHT22;70229;48.010;7.852;2023-08-12T00:05:09;23.70;66.60
80706;DHT22;70229;48.010;7.852;2023-08-12T00:07:39;23.70;66.90
80706;DHT22;70229;48.010;7.852;2023-08-12T00:10:09;23.70;66.80
80706;DHT22;70229;48.010;7.852;2023-08-12T00:12:35;23.70;66.60
80706;DHT22;70229;48.010;7.852;2023-08-12T00:15:02;23.70;67.00
80706;DHT22;70229;48.010;7.852;2023-08-12T00:17:29;23.70;67.50
80706;DHT22;70229;48.010;7.852;2023-08-12T00:19:55;23.70;68.80
80706;DHT22;70229;48.010;7.852;2023-08-12T00:22:21;23.50;69.10
80706;DHT22;70229;48.010;7.852;2023-08-12T00:24:47;23.50;69.50
80706;DHT22;70229;48.010;7.852;2023-08-12T00:27:12;23.50;69.70
80706;DHT22;70229;48.010;7.852;2023-08-12T00:29:38;23.50;68.10
80706;DHT22;70229;48.010;7.852;2023-08-12T00:32:04;23.50;69.70
80706;DHT22;70229;48.010;7.852;2023-08-12T00:34:30;23.60;67.20
80706;DHT22;70229;48.010;7.852;2023-08-12T00:36:55;23.70;67.30
80706;DHT22;70229;48.010;7.852;2023-08-12T00:39:21;23.70;67.00
80706;DHT22;70229;48.010;7.852;2023-08-12T00:41:46;23.70;68.80
80706;DHT22;70229;48.010;7.852;2023-08-12T00:44:12;23.60;68.80
80706;DHT22;70229;48.010;7.852;2023-08-12T00:46:41;23.70;67.70
80706;DHT22;70229;48.010;7.852;2023-08-12T00:49:08;23.60;67.80
80706;DHT22;70229;48.010;7.852;2023-08-12T00:51:34;23.70;67.70
80706;DHT22;70229;48.010;7.852;2023-08-12T00:54:02;23.80;67.90
80706;DHT22;70229;48.010;7.852;2023-08-12T00:56:30;23.70;68.30
80706;DHT22;70229;48.010;7.852;2023-08-12T00:58:58;23.60;70.50
80706;DHT22;70229;48.010;7.852;2023-08-12T01:01:25;23.50;71.90
80706;DHT22;70229;48.010;7.852;2023-08-12T01:03:51;23.40;73.00
80706;DHT22;70229;48.010;7.852;2023-08-12T01:06:17;23.40;73.80
80706;DHT22;70229;48.010;7.852;2023-08-12T01:08:43;23.30;74.10
80706;DHT22;70229;48.010;7.852;2023-08-12T01:13:49;23.10;75.50
80706;DHT22;70229;48.010;7.852;2023-08-12T01:16:18;23.10;75.70
80706;DHT22;70229;48.010;7.852;2023-08-12T01:18:46;23.00;75.50
80706;DHT22;70229;48.010;7.852;2023-08-12T01:21:15;23.00;76.20
80706;DHT22;70229;48.010;7.852;2023-08-12T01:23:42;23.00;76.50
80706;DHT22;70229;48.010;7.852;2023-08-12T01:26:08;22.70;77.60
80706;DHT22;70229;48.010;7.852;2023-08-12T01:28:34;22.70;78.80
80706;DHT22;70229;48.010;7.852;2023-08-12T01:34:34;22.70;79.20
80706;DHT22;70229;48.010;7.852;2023-08-12T01:37:05;22.60;79.10
80706;DHT22;70229;48.010;7.852;2023-08-12T01:39:33;22.50;79.70
80706;DHT22;70229;48.010;7.852;2023-08-12T01:42:01;22.50;79.80
80706;DHT22;70229;48.010;7.852;2023-08-12T01:44:26;22.40;79.60
80706;DHT22;70229;48.010;7.852;2023-08-12T01:46:52;22.40;79.90
80706;DHT22;70229;48.010;7.852;2023-08-12T01:49:19;22.30;80.30
80706;DHT22;70229;48.010;7.852;2023-08-12T01:51:44;22.40;80.60
80706;DHT22;70229;48.010;7.852;2023-08-12T01:54:10;22.30;80.40
80706;DHT22;70229;48.010;7.852;2023-08-12T01:56:35;22.30;79.90
80706;DHT22;70229;48.010;7.852;2023-08-12T01:59:01;22.40;79.60
80706;DHT22;70229;48.010;7.852;2023-08-12T02:01:26;22.40;79.60
80706;DHT22;70229;48.010;7.852;2023-08-12T02:03:52;22.40;79.70
80706;DHT22;70229;48.010;7.852;2023-08-12T02:06:17;22.40;79.90
80706;DHT22;70229;48.010;7.852;2023-08-12T02:08:44;22.50;79.80
80706;DHT22;70229;48.010;7.852;2023-08-12T02:11:10;22.20;79.20
80706;DHT22;70229;48.010;7.852;2023-08-12T02:13:36;22.40;79.20
80706;DHT22;70229;48.010;7.852;2023-08-12T02:16:01;22.40;79.60
80706;DHT22;70229;48.010;7.852;2023-08-12T02:18:27;22.40;79.50
80706;DHT22;70229;48.010;7.852;2023-08-12T02:20:52;22.40;79.30
80706;DHT22;70229;48.010;7.852;2023-08-12T02:23:18;22.40;80.10
80706;DHT22;70229;48.010;7.852;2023-08-12T02:25:43;22.40;79.80
80706;DHT22;70229;48.010;7.852;2023-08-12T02:28:10;22.40;79.10
80706;DHT22;70229;48.010;7.852;2023-08-12T02:30:35;22.40;79.70
80706;DHT22;70229;48.010;7.852;2023-08-12T02:33:01;22.40;80.40
80706;DHT22;70229;48.010;7.852;2023-08-12T02:35:27;22.30;80.10
80706;DHT22;70229;48.010;7.852;2023-08-12T02:37:52;22.50;79.80
80706;DHT22;70229;48.010;7.852;2023-08-12T02:40:18;22.30;79.90
80706;DHT22;70229;48.010;7.852;2023-08-12T02:42:43;22.30;79.70
80706;DHT22;70229;48.010;7.852;2023-08-12T02:45:09;22.20;80.60
80706;DHT22;70229;48.010;7.852;2023-08-12T02:47:35;22.30;80.60
80706;DHT22;70229;48.010;7.852;2023-08-12T02:50:00;22.40;81.10
80706;DHT22;70229;48.010;7.852;2023-08-12T02:52:26;22.30;80.90
80706;DHT22;70229;48.010;7.852;2023-08-12T02:54:51;22.20;81.00
80706;DHT22;70229;48.010;7.852;2023-08-12T02:57:17;22.20;81.50
80706;DHT22;70229;48.010;7.852;2023-08-12T02:59:42;22.10;81.60
80706;DHT22;70229;48.010;7.852;2023-08-12T03:02:08;22.10;81.70
80706;DHT22;70229;48.010;7.852;2023-08-12T03:04:34;22.10;81.40
80706;DHT22;70229;48.010;7.852;2023-08-12T03:06:59;22.20;81.20
80706;DHT22;70229;48.010;7.852;2023-08-12T03:09:25;22.10;81.40
80706;DHT22;70229;48.010;7.852;2023-08-12T03:11:50;22.00;79.40
80706;DHT22;70229;48.010;7.852;2023-08-12T03:14:16;22.00;79.60
80706;DHT22;70229;48.010;7.852;2023-08-12T03:16:41;22.00;80.10
80706;DHT22;70229;48.010;7.852;2023-08-12T03:19:07;22.00;80.20
80706;DHT22;70229;48.010;7.852;2023-08-12T03:21:32;21.90;80.30
80706;DHT22;70229;48.010;7.852;2023-08-12T03:24:00;22.00;79.90
80706;DHT22;70229;48.010;7.852;2023-08-12T03:26:25;22.00;79.70
80706;DHT22;70229;48.010;7.852;2023-08-12T03:28:51;22.10;79.70
80706;DHT22;70229;48.010;7.852;2023-08-12T03:31:16;22.10;79.50
80706;DHT22;70229;48.010;7.852;2023-08-12T03:33:42;22.00;79.80
80706;DHT22;70229;48.010;7.852;2023-08-12T03:36:09;22.00;79.70
80706;DHT22;70229;48.010;7.852;2023-08-12T03:38:34;22.00;79.20
80706;DHT22;70229;48.010;7.852;2023-08-12T03:41:01;22.00;79.10
80706;DHT22;70229;48.010;7.852;2023-08-12T03:43:27;22.10;79.50
80706;DHT22;70229;48.010;7.852;2023-08-12T03:45:53;22.10;79.40
80706;DHT22;70229;48.010;7.852;2023-08-12T03:48:18;22.00;79.40
80706;DHT22;70229;48.010;7.852;2023-08-12T03:50:44;22.00;79.80
80706;DHT22;70229;48.010;7.852;2023-08-12T03:53:12;21.90;80.30
80706;DHT22;70229;48.010;7.852;2023-08-12T03:55:37;21.90;79.90
80706;DHT22;70229;48.010;7.852;2023-08-12T03:58:03;22.00;79.70
80706;DHT22;70229;48.010;7.852;2023-08-12T04:00:29;21.90;79.60
80706;DHT22;70229;48.010;7.852;2023-08-12T04:02:54;22.20;79.70
80706;DHT22;70229;48.010;7.852;2023-08-12T04:05:20;21.90;78.90
80706;DHT22;70229;48.010;7.852;2023-08-12T04:07:46;22.00;79.40
80706;DHT22;70229;48.010;7.852;2023-08-12T04:10:11;22.00;79.20
80706;DHT22;70229;48.010;7.852;2023-08-12T04:12:37;21.90;79.20
80706;DHT22;70229;48.010;7.852;2023-08-12T04:15:03;21.90;79.60
80706;DHT22;70229;48.010;7.852;2023-08-12T04:17:31;21.90;78.90
80706;DHT22;70229;48.010;7.852;2023-08-12T04:19:57;22.00;79.60
80706;DHT22;70229;48.010;7.852;2023-08-12T04:22:22;21.90;79.20
80706;DHT22;70229;48.010;7.852;2023-08-12T04:24:48;21.90;78.60
80706;DHT22;70229;48.010;7.852;2023-08-12T04:27:14;22.00;79.10
80706;DHT22;70229;48.010;7.852;2023-08-12T04:29:41;22.00;78.10
80706;DHT22;70229;48.010;7.852;2023-08-12T04:32:07;22.00;78.00
80706;DHT22;70229;48.010;7.852;2023-08-12T04:34:33;22.10;79.30
80706;DHT22;70229;48.010;7.852;2023-08-12T04:36:58;22.40;79.30
80706;DHT22;70229;48.010;7.852;2023-08-12T04:39:24;22.80;78.50
80706;DHT22;70229;48.010;7.852;2023-08-12T04:41:50;22.10;77.50
80706;DHT22;70229;48.010;7.852;2023-08-12T04:44:16;22.10;78.00
80706;DHT22;70229;48.010;7.852;2023-08-12T04:46:42;22.10;77.60
80706;DHT22;70229;48.010;7.852;2023-08-12T04:49:07;22.20;77.90
80706;DHT22;70229;48.010;7.852;2023-08-12T04:51:33;22.20;78.60
80706;DHT22;70229;48.010;7.852;2023-08-12T04:53:59;22.10;79.90
80706;DHT22;70229;48.010;7.852;2023-08-12T04:56:27;22.10;78.20
80706;DHT22;70229;48.010;7.852;2023-08-12T04:58:54;22.20;79.00
80706;DHT22;70229;48.010;7.852;2023-08-12T05:01:20;22.20;78.90
80706;DHT22;70229;48.010;7.852;2023-08-12T05:03:45;22.30;80.30
80706;DHT22;70229;48.010;7.852;2023-08-12T05:06:11;22.10;78.40
80706;DHT22;70229;48.010;7.852;2023-08-12T05:08:36;22.30;77.70
80706;DHT22;70229;48.010;7.852;2023-08-12T05:11:02;22.20;79.90
80706;DHT22;70229;48.010;7.852;2023-08-12T05:13:28;22.20;79.90
80706;DHT22;70229;48.010;7.852;2023-08-12T05:15:54;22.20;80.70
80706;DHT22;70229;48.010;7.852;2023-08-12T05:18:21;22.20;79.10
80706;DHT22;70229;48.010;7.852;2023-08-12T05:20:50;22.90;80.70
80706;DHT22;70229;48.010;7.852;2023-08-12T05:23:16;22.50;81.30
80706;DHT22;70229;48.010;7.852;2023-08-12T05:25:42;22.20;79.40
80706;DHT22;70229;48.010;7.852;2023-08-12T05:28:07;22.20;80.90
80706;DHT22;70229;48.010;7.852;2023-08-12T05:30:33;22.20;80.50
80706;DHT22;70229;48.010;7.852;2023-08-12T05:32:59;22.40;79.90
80706;DHT22;70229;48.010;7.852;2023-08-12T05:35:24;22.30;80.00
80706;DHT22;70229;48.010;7.852;2023-08-12T05:37:50;22.30;80.30
80706;DHT22;70229;48.010;7.852;2023-08-12T05:40:16;22.30;79.90
80706;DHT22;70229;48.010;7.852;2023-08-12T05:42:41;22.30;80.30
80706;DHT22;70229;48.010;7.852;2023-08-12T05:45:07;22.40;81.20
80706;DHT22;70229;48.010;7.852;2023-08-12T05:47:33;22.40;81.60
80706;DHT22;70229;48.010;7.852;2023-08-12T05:49:59;23.10;81.50
80706;DHT22;70229;48.010;7.852;2023-08-12T05:52:24;22.90;80.90
80706;DHT22;70229;48.010;7.852;2023-08-12T05:54:50;22.40;81.30
80706;DHT22;70229;48.010;7.852;2023-08-12T05:57:15;22.60;81.50
80706;DHT22;70229;48.010;7.852;2023-08-12T05:59:41;22.50;81.10
80706;DHT22;70229;48.010;7.852;2023-08-12T06:02:06;22.80;81.00
80706;DHT22;70229;48.010;7.852;2023-08-12T06:04:32;22.60;81.00
80706;DHT22;70229;48.010;7.852;2023-08-12T06:06:58;22.60;81.30
80706;DHT22;70229;48.010;7.852;2023-08-12T06:09:23;22.60;81.20
80706;DHT22;70229;48.010;7.852;2023-08-12T06:11:49;22.60;82.30
80706;DHT22;70229;48.010;7.852;2023-08-12T06:14:14;22.60;83.00
80706;DHT22;70229;48.010;7.852;2023-08-12T06:16:40;22.60;83.10
80706;DHT22;70229;48.010;7.852;2023-08-12T06:19:05;22.60;83.00
80706;DHT22;70229;48.010;7.852;2023-08-12T06:21:31;22.70;83.00
80706;DHT22;70229;48.010;7.852;2023-08-12T06:23:56;22.70;82.70
80706;DHT22;70229;48.010;7.852;2023-08-12T06:26:22;22.80;82.10
80706;DHT22;70229;48.010;7.852;2023-08-12T06:28:48;22.80;81.90
80706;DHT22;70229;48.010;7.852;2023-08-12T06:31:13;22.90;80.40
80706;DHT22;70229;48.010;7.852;2023-08-12T06:33:39;22.90;80.60
80706;DHT22;70229;48.010;7.852;2023-08-12T06:36:05;23.00;78.80
80706;DHT22;70229;48.010;7.852;2023-08-12T06:38:31;23.10;79.30
80706;DHT22;70229;48.010;7.852;2023-08-12T06:40:56;23.20;79.80
80706;DHT22;70229;48.010;7.852;2023-08-12T06:43:22;23.30;78.60
80706;DHT22;70229;48.010;7.852;2023-08-12T06:45:47;23.60;77.70
80706;DHT22;70229;48.010;7.852;2023-08-12T06:48:13;23.50;77.20
80706;DHT22;70229;48.010;7.852;2023-08-12T06:50:38;23.70;76.70
80706;DHT22;70229;48.010;7.852;2023-08-12T06:53:04;23.70;76.60
80706;DHT22;70229;48.010;7.852;2023-08-12T06:55:30;23.80;76.30
80706;DHT22;70229;48.010;7.852;2023-08-12T06:57:55;24.30;76.80
80706;DHT22;70229;48.010;7.852;2023-08-12T07:00:21;23.90;77.60
80706;DHT22;70229;48.010;7.852;2023-08-12T07:02:46;24.00;76.70
80706;DHT22;70229;48.010;7.852;2023-08-12T07:05:12;24.00;77.00
80706;DHT22;70229;48.010;7.852;2023-08-12T07:07:38;24.20;77.20
80706;DHT22;70229;48.010;7.852;2023-08-12T07:10:03;24.40;78.20
80706;DHT22;70229;48.010;7.852;2023-08-12T07:12:30;24.50;77.90
80706;DHT22;70229;48.010;7.852;2023-08-12T07:14:56;24.60;77.00
80706;DHT22;70229;48.010;7.852;2023-08-12T07:17:21;24.50;76.20
80706;DHT22;70229;48.010;7.852;2023-08-12T07:19:47;24.40;76.80
80706;DHT22;70229;48.010;7.852;2023-08-12T07:22:13;24.70;76.60
80706;DHT22;70229;48.010;7.852;2023-08-12T07:24:38;24.80;75.70
80706;DHT22;70229;48.010;7.852;2023-08-12T07:27:04;25.00;76.30
80706;DHT22;70229;48.010;7.852;2023-08-12T07:29:30;25.10;76.70
80706;DHT22;70229;48.010;7.852;2023-08-12T07:31:56;25.20;75.50
80706;DHT22;70229;48.010;7.852;2023-08-12T07:34:21;25.40;76.00
80706;DHT22;70229;48.010;7.852;2023-08-12T07:36:47;25.30;76.30
80706;DHT22;70229;48.010;7.852;2023-08-12T07:39:12;25.30;75.90
80706;DHT22;70229;48.010;7.852;2023-08-12T07:41:38;25.20;75.90
80706;DHT22;70229;48.010;7.852;2023-08-12T07:44:04;25.30;76.10
80706;DHT22;70229;48.010;7.852;2023-08-12T07:46:30;25.30;75.70
80706;DHT22;70229;48.010;7.852;2023-08-12T07:48:56;25.30;76.20
80706;DHT22;70229;48.010;7.852;2023-08-12T07:51:22;25.10;75.40
80706;DHT22;70229;48.010;7.852;2023-08-12T07:53:48;25.10;76.20
80706;DHT22;70229;48.010;7.852;2023-08-12T07:56:13;25.00;75.90
80706;DHT22;70229;48.010;7.852;2023-08-12T07:58:39;24.90;76.50
80706;DHT22;70229;48.010;7.852;2023-08-12T08:01:04;24.70;77.60
80706;DHT22;70229;48.010;7.852;2023-08-12T08:03:30;24.60;78.40
80706;DHT22;70229;48.010;7.852;2023-08-12T08:05:56;24.60;78.30
80706;DHT22;70229;48.010;7.852;2023-08-12T08:08:22;24.40;80.20
80706;DHT22;70229;48.010;7.852;2023-08-12T08:10:47;24.30;82.00
80706;DHT22;70229;48.010;7.852;2023-08-12T08:13:13;24.10;83.90
80706;DHT22;70229;48.010;7.852;2023-08-12T08:15:38;23.70;84.70
80706;DHT22;70229;48.010;7.852;2023-08-12T08:18:04;23.50;86.20
80706;DHT22;70229;48.010;7.852;2023-08-12T08:20:30;23.10;88.40
80706;DHT22;70229;48.010;7.852;2023-08-12T08:22:56;23.10;89.80
80706;DHT22;70229;48.010;7.852;2023-08-12T08:25:22;23.10;90.60
80706;DHT22;70229;48.010;7.852;2023-08-12T08:27:47;23.10;91.20
80706;DHT22;70229;48.010;7.852;2023-08-12T08:30:13;23.10;91.50
80706;DHT22;70229;48.010;7.852;2023-08-12T08:32:39;23.00;92.00
80706;DHT22;70229;48.010;7.852;2023-08-12T08:35:05;23.10;91.30
80706;DHT22;70229;48.010;7.852;2023-08-12T08:37:31;23.20;91.20
80706;DHT22;70229;48.010;7.852;2023-08-12T08:39:56;23.20;91.50
80706;DHT22;70229;48.010;7.852;2023-08-12T08:42:24;23.10;91.50
80706;DHT22;70229;48.010;7.852;2023-08-12T08:44:52;23.20;90.90
80706;DHT22;70229;48.010;7.852;2023-08-12T08:47:25;23.20;91.40
80706;DHT22;70229;48.010;7.852;2023-08-12T08:49:55;23.20;90.70
80706;DHT22;70229;48.010;7.852;2023-08-12T08:52:24;23.20;91.00
80706;DHT22;70229;48.010;7.852;2023-08-12T08:54:50;23.50;91.20
80706;DHT22;70229;48.010;7.852;2023-08-12T08:57:17;23.70;90.90
80706;DHT22;70229;48.010;7.852;2023-08-12T08:59:43;24.20;90.10
80706;DHT22;70229;48.010;7.852;2023-08-12T09:02:16;24.20;90.30
80706;DHT22;70229;48.010;7.852;2023-08-12T09:04:44;24.40;88.60
80706;DHT22;70229;48.010;7.852;2023-08-12T09:07:11;24.40;87.60
80706;DHT22;70229;48.010;7.852;2023-08-12T09:09:40;24.40;87.50
80706;DHT22;70229;48.010;7.852;2023-08-12T09:12:07;24.50;86.40
80706;DHT22;70229;48.010;7.852;2023-08-12T09:14:34;24.50;85.80
80706;DHT22;70229;48.010;7.852;2023-08-12T09:17:00;24.40;86.20
80706;DHT22;70229;48.010;7.852;2023-08-12T09:19:26;24.20;87.00
80706;DHT22;70229;48.010;7.852;2023-08-12T09:21:53;24.20;88.50
80706;DHT22;70229;48.010;7.852;2023-08-12T09:24:24;24.10;90.60
80706;DHT22;70229;48.010;7.852;2023-08-12T09:26:54;23.90;90.80
80706;DHT22;70229;48.010;7.852;2023-08-12T09:29:23;23.90;91.20
80706;DHT22;70229;48.010;7.852;2023-08-12T09:31:52;23.70;91.90
80706;DHT22;70229;48.010;7.852;2023-08-12T09:34:17;23.70;91.80
80706;DHT22;70229;48.010;7.852;2023-08-12T09:36:43;23.70;92.70
80706;DHT22;70229;48.010;7.852;2023-08-12T09:39:09;23.80;92.30
80706;DHT22;70229;48.010;7.852;2023-08-12T09:41:35;24.00;93.00
80706;DHT22;70229;48.010;7.852;2023-08-12T09:44:02;24.20;92.30
80706;DHT22;70229;48.010;7.852;2023-08-12T09:46:28;24.50;92.00
80706;DHT22;70229;48.010;7.852;2023-08-12T09:48:53;24.70;91.90
80706;DHT22;70229;48.010;7.852;2023-08-12T09:51:20;24.60;91.70
80706;DHT22;70229;48.010;7.852;2023-08-12T09:53:49;24.80;91.40
80706;DHT22;70229;48.010;7.852;2023-08-12T09:56:19;25.10;92.30
80706;DHT22;70229;48.010;7.852;2023-08-12T09:58:48;25.20;92.00
80706;DHT22;70229;48.010;7.852;2023-08-12T10:01:18;25.10;89.30
80706;DHT22;70229;48.010;7.852;2023-08-12T10:03:47;25.20;90.60
80706;DHT22;70229;48.010;7.852;2023-08-12T10:06:14;25.30;90.90
80706;DHT22;70229;48.010;7.852;2023-08-12T10:08:40;25.50;91.50
80706;DHT22;70229;48.010;7.852;2023-08-12T10:11:07;25.90;90.80
80706;DHT22;70229;48.010;7.852;2023-08-12T10:13:33;26.20;84.70
80706;DHT22;70229;48.010;7.852;2023-08-12T10:16:00;26.40;84.40
80706;DHT22;70229;48.010;7.852;2023-08-12T10:18:28;26.70;84.30
80706;DHT22;70229;48.010;7.852;2023-08-12T10:20:57;26.60;81.80
80706;DHT22;70229;48.010;7.852;2023-08-12T10:23:25;26.60;80.00
80706;DHT22;70229;48.010;7.852;2023-08-12T10:25:53;26.60;79.50
80706;DHT22;70229;48.010;7.852;2023-08-12T10:28:20;26.70;80.70
80706;DHT22;70229;48.010;7.852;2023-08-12T10:30:46;26.80;82.00
80706;DHT22;70229;48.010;7.852;2023-08-12T10:33:14;27.10;80.00
80706;DHT22;70229;48.010;7.852;2023-08-12T10:35:49;27.40;75.80
80706;DHT22;70229;48.010;7.852;2023-08-12T10:38:20;26.20;74.80
80706;DHT22;70229;48.010;7.852;2023-08-12T10:40:48;27.70;75.10
80706;DHT22;70229;48.010;7.852;2023-08-12T10:43:17;27.60;72.90
80706;DHT22;70229;48.010;7.852;2023-08-12T10:45:49;27.70;73.80
80706;DHT22;70229;48.010;7.852;2023-08-12T10:48:23;27.80;75.50
80706;DHT22;70229;48.010;7.852;2023-08-12T10:50:53;27.80;73.10
80706;DHT22;70229;48.010;7.852;2023-08-12T10:53:32;27.80;74.20
80706;DHT22;70229;48.010;7.852;2023-08-12T10:56:01;27.30;74.60
80706;DHT22;70229;48.010;7.852;2023-08-12T10:58:46;27.30;76.10
80706;DHT22;70229;48.010;7.852;2023-08-12T11:01:19;27.30;77.10
80706;DHT22;70229;48.010;7.852;2023-08-12T11:03:45;27.40;77.10
80706;DHT22;70229;48.010;7.852;2023-08-12T11:06:11;27.30;76.10
80706;DHT22;70229;48.010;7.852;2023-08-12T11:08:45;27.30;77.30
80706;DHT22;70229;48.010;7.852;2023-08-12T11:11:20;27.10;77.30
80706;DHT22;70229;48.010;7.852;2023-08-12T11:13:52;27.10;78.10
80706;DHT22;70229;48.010;7.852;2023-08-12T11:16:18;27.10;78.40
80706;DHT22;70229;48.010;7.852;2023-08-12T11:18:43;27.00;79.40
80706;DHT22;70229;48.010;7.852;2023-08-12T11:21:09;26.90;80.30
80706;DHT22;70229;48.010;7.852;2023-08-12T11:23:35;26.70;83.80
80706;DHT22;70229;48.010;7.852;2023-08-12T11:26:02;25.40;87.00
80706;DHT22;70229;48.010;7.852;2023-08-12T11:28:28;25.50;89.20
80706;DHT22;70229;48.010;7.852;2023-08-12T11:30:54;24.30;91.00
80706;DHT22;70229;48.010;7.852;2023-08-12T11:33:20;23.90;92.30
80706;DHT22;70229;48.010;7.852;2023-08-12T11:35:47;23.30;92.30
80706;DHT22;70229;48.010;7.852;2023-08-12T11:38:12;23.20;92.60
80706;DHT22;70229;48.010;7.852;2023-08-12T11:40:40;23.20;93.60
80706;DHT22;70229;48.010;7.852;2023-08-12T11:43:06;23.20;93.30
80706;DHT22;70229;48.010;7.852;2023-08-12T11:45:31;23.30;93.60
80706;DHT22;70229;48.010;7.852;2023-08-12T11:47:57;23.20;93.00
80706;DHT22;70229;48.010;7.852;2023-08-12T11:50:24;23.20;93.40
80706;DHT22;70229;48.010;7.852;2023-08-12T11:52:51;23.40;94.50
80706;DHT22;70229;48.010;7.852;2023-08-12T11:55:17;23.30;94.40
80706;DHT22;70229;48.010;7.852;2023-08-12T11:57:44;23.80;95.30
80706;DHT22;70229;48.010;7.852;2023-08-12T12:00:11;23.60;95.30
80706;DHT22;70229;48.010;7.852;2023-08-12T12:02:52;24.20;94.10
80706;DHT22;70229;48.010;7.852;2023-08-12T12:05:21;24.60;92.40
80706;DHT22;70229;48.010;7.852;2023-08-12T12:07:48;24.90;94.00
80706;DHT22;70229;48.010;7.852;2023-08-12T12:10:26;24.90;91.80
80706;DHT22;70229;48.010;7.852;2023-08-12T12:12:54;25.20;92.20
80706;DHT22;70229;48.010;7.852;2023-08-12T12:15:20;25.30;91.30
80706;DHT22;70229;48.010;7.852;2023-08-12T12:17:47;25.30;93.20
80706;DHT22;70229;48.010;7.852;2023-08-12T12:20:13;25.10;93.10
80706;DHT22;70229;48.010;7.852;2023-08-12T12:22:41;25.10;93.60
80706;DHT22;70229;48.010;7.852;2023-08-12T12:25:10;25.00;92.30
80706;DHT22;70229;48.010;7.852;2023-08-12T12:27:37;25.20;92.60
80706;DHT22;70229;48.010;7.852;2023-08-12T12:30:05;25.30;91.90
80706;DHT22;70229;48.010;7.852;2023-08-12T12:32:31;25.40;92.60
80706;DHT22;70229;48.010;7.852;2023-08-12T12:34:57;25.20;92.30
80706;DHT22;70229;48.010;7.852;2023-08-12T12:37:22;25.40;92.20
80706;DHT22;70229;48.010;7.852;2023-08-12T12:39:48;25.50;91.90
80706;DHT22;70229;48.010;7.852;2023-08-12T12:42:13;25.70;91.30
80706;DHT22;70229;48.010;7.852;2023-08-12T12:44:39;26.00;90.80
80706;DHT22;70229;48.010;7.852;2023-08-12T12:47:05;26.10;91.50
80706;DHT22;70229;48.010;7.852;2023-08-12T12:49:30;26.40;92.00
80706;DHT22;70229;48.010;7.852;2023-08-12T12:51:56;26.60;89.60
80706;DHT22;70229;48.010;7.852;2023-08-12T12:54:22;26.90;89.10
80706;DHT22;70229;48.010;7.852;2023-08-12T12:56:47;27.20;89.80
80706;DHT22;70229;48.010;7.852;2023-08-12T12:59:13;27.70;88.70
80706;DHT22;70229;48.010;7.852;2023-08-12T13:01:40;28.00;86.50
80706;DHT22;70229;48.010;7.852;2023-08-12T13:04:06;28.20;86.10
80706;DHT22;70229;48.010;7.852;2023-08-12T13:06:33;28.30;86.40
80706;DHT22;70229;48.010;7.852;2023-08-12T13:08:59;28.60;85.40
80706;DHT22;70229;48.010;7.852;2023-08-12T13:11:25;28.80;83.10
80706;DHT22;70229;48.010;7.852;2023-08-12T13:29:22;28.50;78.70
80706;DHT22;70229;48.010;7.852;2023-08-12T13:31:48;28.50;77.90
80706;DHT22;70229;48.010;7.852;2023-08-12T13:34:13;28.40;76.30
80706;DHT22;70229;48.010;7.852;2023-08-12T13:36:40;28.80;77.90
80706;DHT22;70229;48.010;7.852;2023-08-12T13:39:05;28.70;77.00
80706;DHT22;70229;48.010;7.852;2023-08-12T13:41:31;28.60;76.90
80706;DHT22;70229;48.010;7.852;2023-08-12T13:43:57;27.90;77.80
80706;DHT22;70229;48.010;7.852;2023-08-12T13:46:22;27.40;80.00
80706;DHT22;70229;48.010;7.852;2023-08-12T13:48:48;27.60;81.00
80706;DHT22;70229;48.010;7.852;2023-08-12T13:51:13;27.80;80.60
80706;DHT22;70229;48.010;7.852;2023-08-12T13:53:39;27.90;80.00
80706;DHT22;70229;48.010;7.852;2023-08-12T13:56:04;28.10;80.60
80706;DHT22;70229;48.010;7.852;2023-08-12T13:58:30;28.00;80.10
80706;DHT22;70229;48.010;7.852;2023-08-12T14:00:55;27.90;80.20
80706;DHT22;70229;48.010;7.852;2023-08-12T14:03:21;28.20;80.40
80706;DHT22;70229;48.010;7.852;2023-08-12T14:05:47;28.50;77.70
80706;DHT22;70229;48.010;7.852;2023-08-12T14:08:12;28.50;76.10
80706;DHT22;70229;48.010;7.852;2023-08-12T14:10:38;28.30;76.10
80706;DHT22;70229;48.010;7.852;2023-08-12T14:13:03;28.40;76.10
80706;DHT22;70229;48.010;7.852;2023-08-12T14:15:29;28.10;76.30
80706;DHT22;70229;48.010;7.852;2023-08-12T14:17:55;28.10;76.90
80706;DHT22;70229;48.010;7.852;2023-08-12T14:20:20;28.10;76.10
80706;DHT22;70229;48.010;7.852;2023-08-12T14:22:46;28.10;76.30
80706;DHT22;70229;48.010;7.852;2023-08-12T14:25:12;28.20;76.60
80706;DHT22;70229;48.010;7.852;2023-08-12T14:27:38;28.30;75.40
80706;DHT22;70229;48.010;7.852;2023-08-12T14:30:04;28.40;75.90
80706;DHT22;70229;48.010;7.852;2023-08-12T14:32:30;28.70;76.00
80706;DHT22;70229;48.010;7.852;2023-08-12T14:34:55;28.60;75.80
80706;DHT22;70229;48.010;7.852;2023-08-12T14:37:21;28.30;74.60
80706;DHT22;70229;48.010;7.852;2023-08-12T14:39:46;28.40;75.00
80706;DHT22;70229;48.010;7.852;2023-08-12T14:42:12;28.20;73.00
80706;DHT22;70229;48.010;7.852;2023-08-12T14:44:37;28.40;74.20
80706;DHT22;70229;48.010;7.852;2023-08-12T14:47:03;28.60;73.50
80706;DHT22;70229;48.010;7.852;2023-08-12T14:49:29;29.00;72.80
80706;DHT22;70229;48.010;7.852;2023-08-12T14:51:55;28.80;73.20
80706;DHT22;70229;48.010;7.852;2023-08-12T14:54:22;29.00;71.70
80706;DHT22;70229;48.010;7.852;2023-08-12T14:56:47;29.20;70.60
80706;DHT22;70229;48.010;7.852;2023-08-12T14:59:13;29.10;69.60
80706;DHT22;70229;48.010;7.852;2023-08-12T15:01:38;29.00;70.80
80706;DHT22;70229;48.010;7.852;2023-08-12T15:04:04;29.00;68.80
80706;DHT22;70229;48.010;7.852;2023-08-12T15:06:30;29.20;69.40
80706;DHT22;70229;48.010;7.852;2023-08-12T15:08:56;29.00;69.50
80706;DHT22;70229;48.010;7.852;2023-08-12T15:11:21;29.20;69.10
80706;DHT22;70229;48.010;7.852;2023-08-12T15:13:48;29.10;69.30
80706;DHT22;70229;48.010;7.852;2023-08-12T15:16:13;29.00;69.80
80706;DHT22;70229;48.010;7.852;2023-08-12T15:18:39;28.60;70.20
80706;DHT22;70229;48.010;7.852;2023-08-12T15:21:04;28.50;70.70
80706;DHT22;70229;48.010;7.852;2023-08-12T15:23:30;28.60;70.40
80706;DHT22;70229;48.010;7.852;2023-08-12T15:25:56;28.60;70.50
80706;DHT22;70229;48.010;7.852;2023-08-12T15:28:21;28.60;69.70
80706;DHT22;70229;48.010;7.852;2023-08-12T15:30:50;28.70;70.00
80706;DHT22;70229;48.010;7.852;2023-08-12T15:33:16;28.60;68.50
80706;DHT22;70229;48.010;7.852;2023-08-12T15:35:42;28.60;67.80
80706;DHT22;70229;48.010;7.852;2023-08-12T15:38:08;28.60;65.70
80706;DHT22;70229;48.010;7.852;2023-08-12T15:40:37;28.40;66.20
80706;DHT22;70229;48.010;7.852;2023-08-12T15:43:03;28.40;66.40
80706;DHT22;70229;48.010;7.852;2023-08-12T15:45:29;28.30;65.80